Time;durP1;ratioP1;P1;durP2;ratioP2;P2;SDS_P1;SDS_P2;PMS_P1;PMS_P2;Temp;Humidity;BMP_temperature;BMP_pressure;BME280_temperature;BME280_humidity;BME280_pressure;Samples;Min_cycle;Max_cycle;Signal;HPM_P1;HPM_P2
2022/03/11 00:02:25;;;;;;;21.83;12.70;;;;;;;3.82;75.46;100745.16;5024239;28;20029;-84
2022/03/11 00:04:50;;;;;;;22.23;12.43;;;;;;;3.79;75.95;100745.16;5042346;28;20036;-82
2022/03/11 00:07:18;;;;;;;23.05;13.38;;;;;;;3.76;76.09;100747.78;5044051;28;20077;-83
2022/03/11 00:09:48;;;;;;;22.85;13.20;;;;;;;3.76;76.32;100734.59;5047274;28;20021;-84
2022/03/11 00:12:13;;;;;;;23.77;13.18;;;;;;;3.77;75.84;100738.97;5029319;28;20083;-83
2022/03/11 00:14:42;;;;;;;25.63;14.05;;;;;;;3.80;75.88;100741.63;5022421;28;20026;-82
2022/03/11 00:17:13;;;;;;;24.58;13.90;;;;;;;3.76;76.07;100743.38;5019863;28;20449;-83
2022/03/11 00:19:38;;;;;;;24.85;13.80;;;;;;;3.72;76.26;100746.00;5021576;28;20025;-82
2022/03/11 00:22:04;;;;;;;25.30;13.88;;;;;;;3.72;76.08;100730.16;5039727;28;20079;-83
2022/03/11 00:24:29;;;;;;;24.35;13.73;;;;;;;3.62;76.45;100742.41;5041790;28;20394;-83
2022/03/11 00:27:00;;;;;;;23.02;13.68;;;;;;;3.62;76.80;100748.59;5044763;28;20022;-83
2022/03/11 00:29:33;;;;;;;25.90;13.55;;;;;;;3.57;77.04;100745.91;5026824;28;20033;-83
2022/03/11 00:31:59;;;;;;;26.08;14.48;;;;;;;3.56;77.12;100743.25;5045542;28;20030;-84
2022/03/11 00:34:24;;;;;;;26.48;13.57;;;;;;;3.56;76.55;100745.88;5027681;28;20029;-84
2022/03/11 00:36:58;;;;;;;26.45;13.80;;;;;;;3.48;77.35;100748.47;5026711;28;20026;-84
2022/03/11 00:39:34;;;;;;;;;;;;;;;;;;;;;
2022/03/11 00:42:00;;;;;;;25.10;14.25;;;;;;;3.41;77.34;100755.47;5045547;28;20100;-83
2022/03/11 00:44:25;;;;;;;25.48;13.88;;;;;;;3.35;77.82;100745.75;5026711;28;20053;-84
2022/03/11 00:46:53;;;;;;;20.10;13.07;;;;;;;3.33;77.35;100738.69;5044685;28;20113;-84
2022/03/11 00:49:19;;;;;;;26.13;13.85;;;;;;;3.27;78.03;100738.66;5023145;28;20125;-82
2022/03/11 00:51:47;;;;;;;25.40;14.70;;;;;;;3.22;78.72;100739.50;5036903;28;20049;-83
2022/03/11 00:54:13;;;;;;;27.45;14.50;;;;;;;3.23;78.46;100738.63;5037541;28;20042;-83
2022/03/11 00:56:38;;;;;;;24.13;13.82;;;;;;;3.21;77.91;100735.13;5020258;28;20026;-83
2022/03/11 00:59:04;;;;;;;25.05;13.77;;;;;;;3.19;78.46;100734.22;5021329;28;20021;-83
2022/03/11 01:01:29;;;;;;;25.15;15.30;;;;;;;3.17;78.47;100741.22;5039860;28;20055;-83
2022/03/11 01:04:00;;;;;;;26.88;14.45;;;;;;;3.12;78.80;100729.75;5040539;28;20026;-83
2022/03/11 01:06:29;;;;;;;24.75;14.90;;;;;;;3.12;78.67;100730.63;5041646;28;20036;-84
2022/03/11 01:09:00;;;;;;;25.15;14.60;;;;;;;3.13;78.35;100721.84;5042560;28;20025;-83
2022/03/11 01:11:28;;;;;;;29.17;14.77;;;;;;;3.03;79.29;100727.94;5025688;28;20064;-84
2022/03/11 01:13:56;;;;;;;27.13;14.93;;;;;;;2.97;79.38;100723.47;5043958;28;20025;-84
2022/03/11 01:16:24;;;;;;;25.83;14.15;;;;;;;2.92;79.49;100719.91;5043958;28;20045;-84
2022/03/11 01:18:50;;;;;;;27.83;15.13;;;;;;;2.88;79.95;100713.75;5043801;28;20393;-82
2022/03/11 01:21:27;;;;;;;28.50;15.15;;;;;;;2.89;79.90;100725.16;5026049;28;20115;-83
2022/03/11 01:24:01;;;;;;;29.88;15.63;;;;;;;2.83;79.54;100720.72;5042979;28;20026;-83
2022/03/11 01:26:36;;;;;;;;;;;;;;;2.83;80.25;100723.38;5018869;28;20025;-83
2022/03/11 01:29:04;;;;;;;22.50;12.68;;;;;;;2.84;79.95;100721.59;5019373;28;19909;-83
2022/03/11 01:31:31;;;;;;;26.83;15.02;;;;;;;2.81;79.69;100725.09;5020928;28;20017;-84
2022/03/11 01:33:57;;;;;;;26.77;15.50;;;;;;;2.81;79.85;100716.31;5023015;28;20018;-83
2022/03/11 01:36:22;;;;;;;30.70;15.18;;;;;;;2.75;80.21;100712.75;5038761;28;20025;-83
2022/03/11 01:38:56;;;;;;;24.77;14.93;;;;;;;2.69;80.61;100710.03;5022115;28;20470;-83
2022/03/11 01:41:22;;;;;;;;;;;;;;;2.71;79.91;100712.69;5039836;28;20061;-84
2022/03/11 01:43:58;;;;;;;25.92;13.45;;;;;;;2.69;80.27;100712.69;5022466;28;19913;-83
2022/03/11 01:46:32;;;;;;;25.80;13.85;;;;;;;2.64;80.12;100711.75;5040672;28;20112;-83
2022/03/11 01:49:04;;;;;;;25.85;15.07;;;;;;;2.29;81.90;100713.16;5040656;28;20064;-84
2022/03/11 01:51:31;;;;;;;26.33;14.90;;;;;;;2.09;83.42;100712.03;5024073;28;20029;-84
2022/03/11 01:53:57;;;;;;;28.77;15.10;;;;;;;1.96;84.82;100707.50;5023335;28;20425;-84
2022/03/11 01:56:48;;;;;;;27.05;14.57;;;;;;;1.82;85.55;100704.69;5041111;28;20025;-85
2022/03/11 01:59:23;;;;;;;28.20;15.82;;;;;;;1.76;86.41;100709.00;5031038;28;20041;-84
2022/03/11 02:01:54;;;;;;;26.25;14.75;;;;;;;1.75;86.16;100706.38;5019074;28;20037;-85
2022/03/11 02:04:23;;;;;;;28.85;15.25;;;;;;;1.74;86.15;100709.84;5018427;28;20487;-84
2022/03/11 02:07:00;;;;;;;25.13;14.27;;;;;;;1.58;86.90;100704.38;5018052;28;20049;-86
2022/03/11 02:10:00;;;;;;;28.48;15.73;;;;;;;1.47;88.10;100703.34;5017677;28;20509;-86
2022/03/11 02:12:40;;;;;;;27.17;14.57;;;;;;;1.26;89.31;100697.81;5016702;28;20095;-86
2022/03/11 02:15:09;;;;;;;30.40;15.38;;;;;;;1.24;90.45;100693.38;5022120;28;20398;-85
2022/03/11 02:17:42;;;;;;;31.45;15.40;;;;;;;1.21;90.26;100691.59;5040641;28;20032;-86
2022/03/11 02:20:14;;;;;;;32.58;15.82;;;;;;;1.08;91.20;100688.72;5040503;28;20028;-85
2022/03/11 02:22:44;;;;;;;30.42;16.10;;;;;;;1.02;91.85;100685.13;5021590;28;20064;-86
2022/03/11 02:25:22;;;;;;;28.42;15.38;;;;;;;0.99;92.35;100683.34;5019545;28;20117;-84
2022/03/11 02:28:01;;;;;;;;;;;;;;;;;;;;;
2022/03/11 02:30:36;;;;;;;29.45;15.90;;;;;;;1.00;91.49;100686.03;5041880;28;20098;-87
2022/03/11 02:33:16;;;;;;;28.60;14.45;;;;;;;0.96;92.82;100688.53;5021233;28;20025;-85
2022/03/11 02:35:42;;;;;;;27.88;14.68;;;;;;;0.82;93.09;100688.34;5038426;28;20029;-83
2022/03/11 02:38:10;;;;;;;29.95;15.38;;;;;;;0.83;92.52;100690.97;5017021;28;20048;-82
2022/03/11 02:40:35;;;;;;;29.38;15.30;;;;;;;0.78;93.67;100684.75;5019025;28;20076;-84
2022/03/11 02:43:07;;;;;;;30.92;16.15;;;;;;;0.84;93.14;100690.13;5035600;28;20426;-85
2022/03/11 02:45:32;;;;;;;31.55;15.98;;;;;;;0.65;94.54;100683.66;5018837;28;20075;-85
2022/03/11 02:48:15;;;;;;;28.27;15.18;;;;;;;0.50;95.37;100679.91;5035454;28;20108;-86
2022/03/11 02:50:47;;;;;;;31.73;15.25;;;;;;;0.45;95.74;100676.31;5018574;28;20029;-86
2022/03/11 02:53:37;;;;;;;31.10;15.63;;;;;;;0.44;96.40;100671.91;5019009;28;20509;-85
2022/03/11 02:59:06;;;;;;;32.33;14.57;;;;;;;0.54;95.42;100670.34;5039873;28;20041;-86
2022/03/11 03:01:36;;;;;;;31.50;14.80;;;;;;;0.60;94.77;100674.81;5023617;28;20028;-85
2022/03/11 03:04:18;;;;;;;35.70;15.77;;;;;;;0.63;94.09;100666.97;5024053;28;20029;-85
2022/03/11 03:07:17;;;;;;;;;;;;;;;;;;;;;
2022/03/11 03:09:58;;;;;;;32.47;15.88;;;;;;;0.59;94.80;100670.44;5007801;28;20112;-85
2022/03/11 03:12:38;;;;;;;29.65;14.77;;;;;;;0.47;94.94;100664.09;5016468;28;20068;-85
2022/03/11 03:15:07;;;;;;;31.63;15.27;;;;;;;0.47;94.75;100666.72;5017360;28;20021;-84
2022/03/11 03:17:36;;;;;;;28.13;14.82;;;;;;;0.41;95.14;100661.38;5018791;28;20030;-84
2022/03/11 03:20:19;;;;;;;30.13;16.55;;;;;;;0.37;95.59;100660.41;5018891;28;20033;-84
2022/03/11 03:22:50;;;;;;;30.95;16.50;;;;;;;0.24;96.57;100654.03;5019841;28;20032;-84
2022/03/11 03:25:38;;;;;;;34.55;15.55;;;;;;;0.21;96.30;100656.59;5037917;28;20044;-85
2022/03/11 03:28:12;;;;;;;30.75;16.08;;;;;;;0.18;96.42;100657.44;5041620;28;20025;-86
2022/03/11 03:30:37;;;;;;;30.38;15.82;;;;;;;0.13;97.10;100658.22;5023466;28;20044;-86
2022/03/11 03:33:11;;;;;;;35.88;15.82;;;;;;;0.10;97.53;100648.53;5041032;28;20390;-87
2022/03/11 03:35:42;;;;;;;34.15;15.52;;;;;;;0.14;96.93;100646.84;5023180;28;20478;-86
2022/03/11 03:38:15;;;;;;;30.23;14.88;;;;;;;0.06;97.39;100642.34;5041130;28;20030;-85
2022/03/11 03:40:43;;;;;;;;;;;;;;;0.03;97.81;100646.63;5024902;28;20172;-86
2022/03/11 03:43:09;;;;;;;31.38;14.43;;;;;;;-0.03;97.63;100642.16;5028351;28;19916;-84
2022/03/11 03:45:37;;;;;;;32.25;15.60;;;;;;;-0.09;97.44;100644.66;5026056;28;20025;-84
2022/03/11 03:48:03;;;;;;;35.40;15.68;;;;;;;-0.12;98.73;100641.13;5022171;28;20021;-84
2022/03/11 03:50:29;;;;;;;32.28;16.38;;;;;;;-0.14;98.52;100634.97;5037911;28;20548;-84
2022/03/11 03:52:54;;;;;;;30.38;14.63;;;;;;;0.01;97.02;100633.47;5022359;28;20030;-85
2022/03/11 03:55:19;;;;;;;31.80;15.73;;;;;;;0.21;94.69;100635.59;5041903;28;20035;-85
2022/03/11 03:57:45;;;;;;;30.38;14.43;;;;;;;0.31;93.98;100641.94;5045652;28;20363;-85
2022/03/11 04:00:11;;;;;;;32.50;15.25;;;;;;;0.31;93.57;100628.78;5045726;28;20186;-85
2022/03/11 04:02:47;;;;;;;31.40;15.88;;;;;;;0.29;93.44;100628.75;5046559;28;20025;-86
2022/03/11 04:05:13;;;;;;;30.23;15.27;;;;;;;0.15;94.53;100625.88;5045421;28;20033;-86
2022/03/11 04:07:45;;;;;;;32.20;14.75;;;;;;;0.25;92.89;100621.69;5047627;28;20052;-85
2022/03/11 04:10:12;;;;;;;30.45;14.05;;;;;;;0.36;91.74;100624.47;5032090;28;20030;-85
2022/03/11 04:12:39;;;;;;;30.70;15.73;;;;;;;0.45;90.63;100623.75;5031389;28;20075;-85
2022/03/11 04:15:06;;;;;;;30.45;14.52;;;;;;;0.47;90.15;100611.53;5048626;28;20043;-84
2022/03/11 04:17:31;;;;;;;27.55;13.13;;;;;;;0.45;89.86;100615.88;5030472;28;20064;-84
2022/03/11 04:19:56;;;;;;;34.13;15.40;;;;;;;0.49;89.28;100614.19;5047851;28;20052;-84
2022/03/11 04:22:22;;;;;;;33.78;16.20;;;;;;;0.57;87.97;100616.97;5028062;28;20112;-81
2022/03/11 04:24:47;;;;;;;32.13;15.35;;;;;;;0.57;87.76;100611.69;5043924;28;20036;-83
2022/03/11 04:27:13;;;;;;;31.70;12.68;;;;;;;0.68;86.49;100615.38;5031575;28;20498;-84
2022/03/11 04:29:38;;;;;;;32.83;14.25;;;;;;;0.74;85.21;100604.97;5031678;28;20426;-83
2022/03/11 04:32:05;;;;;;;31.55;15.27;;;;;;;0.84;84.50;100602.47;5035889;28;20097;-82
2022/03/11 04:34:30;;;;;;;26.35;13.65;;;;;;;0.84;84.36;100610.38;5039397;28;20026;-83
2022/03/11 04:36:56;;;;;;;26.08;12.93;;;;;;;0.90;83.59;100605.22;5055114;28;20069;-83
2022/03/11 04:39:26;;;;;;;28.15;14.02;;;;;;;0.97;82.88;100596.53;5056083;28;20057;-82
2022/03/11 04:41:53;;;;;;;27.38;13.52;;;;;;;0.91;83.09;100593.81;5056358;28;20025;-84
2022/03/11 04:44:24;;;;;;;30.88;13.93;;;;;;;0.96;82.32;100599.13;5040970;28;20025;-84
2022/03/11 04:46:49;;;;;;;35.47;14.65;;;;;;;1.00;81.46;100596.59;5058460;28;20017;-84
2022/03/11 04:49:33;;;;;;;29.60;13.20;;;;;;;1.02;81.67;100598.34;5058535;28;20040;-85
2022/03/11 04:51:59;;;;;;;28.58;12.77;;;;;;;1.02;80.84;100606.25;5059763;28;20013;-82
2022/03/11 04:54:32;;;;;;;28.55;14.20;;;;;;;0.97;80.99;100607.06;5057356;28;20055;-84
2022/03/11 04:56:59;;;;;;;26.03;13.00;;;;;;;0.94;80.77;100612.28;5052787;28;20029;-83
2022/03/11 04:59:37;;;;;;;28.60;13.02;;;;;;;0.94;80.53;100603.50;5040405;28;20309;-85
2022/03/11 05:02:05;;;;;;;31.00;14.18;;;;;;;0.94;80.71;100595.59;5038046;28;20028;-84
2022/03/11 05:04:37;;;;;;;26.75;12.52;;;;;;;0.92;80.07;100599.97;5055887;28;20025;-85
2022/03/11 05:07:07;;;;;;;30.80;12.77;;;;;;;0.92;80.17;100597.34;5037853;28;20363;-84
2022/03/11 05:09:45;;;;;;;29.70;12.65;;;;;;;0.85;80.50;100602.47;5037242;28;20037;-83
2022/03/11 05:12:22;;;;;;;26.67;12.82;;;;;;;0.80;80.70;100603.31;5036974;28;20055;-85
2022/03/11 05:14:57;;;;;;;26.92;12.38;;;;;;;0.74;81.00;100597.09;5035271;28;20046;-83
2022/03/11 05:17:28;;;;;;;29.23;13.80;;;;;;;0.68;81.63;100598.72;5035299;28;20097;-84
2022/03/11 05:19:53;;;;;;;30.55;13.35;;;;;;;0.65;81.16;100596.91;5048533;28;20099;-84
2022/03/11 05:22:22;;;;;;;27.23;12.85;;;;;;;0.65;81.17;100589.91;5025591;28;20021;-84
2022/03/11 05:24:50;;;;;;;26.30;13.00;;;;;;;0.67;80.64;100592.59;5041696;28;20079;-81
2022/03/11 05:27:16;;;;;;;27.00;13.05;;;;;;;0.62;80.67;100594.25;5022318;28;20055;-83
2022/03/11 05:29:41;;;;;;;29.30;12.93;;;;;;;0.58;80.74;100589.78;5025966;28;20025;-86
2022/03/11 05:32:08;;;;;;;28.75;13.98;;;;;;;0.55;81.16;100594.16;5046895;28;20026;-85
2022/03/11 05:34:37;;;;;;;26.88;13.45;;;;;;;0.50;81.19;100600.19;5047749;28;20037;-86
2022/03/11 05:37:03;;;;;;;30.05;13.32;;;;;;;0.49;81.60;100580.03;5028217;28;20037;-87
2022/03/11 05:39:51;;;;;;;;;;;;;;;;;;;;;
2022/03/11 05:42:26;;;;;;;28.30;13.48;;;;;;;0.45;81.21;100586.97;5043222;28;20089;-85
2022/03/11 05:44:51;;;;;;;28.38;11.88;;;;;;;0.41;81.37;100590.41;5025244;28;20049;-84
2022/03/11 05:47:19;;;;;;;27.48;12.43;;;;;;;0.40;81.43;100588.63;5025042;28;20025;-86
2022/03/11 05:49:51;;;;;;;27.58;12.80;;;;;;;0.37;81.50;100589.47;5043083;28;20039;-86
2022/03/11 05:52:17;;;;;;;26.60;12.57;;;;;;;0.38;80.85;100586.00;5039319;28;20044;-86
2022/03/11 05:54:47;;;;;;;25.60;11.95;;;;;;;0.40;81.01;100591.25;5045769;28;20028;-85
2022/03/11 05:57:15;;;;;;;26.88;12.98;;;;;;;0.33;81.19;100588.56;5046982;28;20025;-84
2022/03/11 06:00:10;;;;;;;26.85;13.05;;;;;;;0.31;81.21;100585.00;5046981;28;20021;-85
2022/03/11 06:02:54;;;;;;;;;;;;;;;;;;;;;
2022/03/11 06:05:20;;;;;;;28.17;12.68;;;;;;;0.33;80.90;100585.94;5040749;28;20108;-85
2022/03/11 06:07:47;;;;;;;25.42;12.63;;;;;;;0.41;80.60;100585.16;5042608;28;20045;-86
2022/03/11 06:10:22;;;;;;;27.80;13.88;;;;;;;0.44;80.26;100579.94;5030855;28;20075;-87
2022/03/11 06:12:50;;;;;;;27.42;12.68;;;;;;;0.47;79.68;100579.09;5029257;28;20041;-85
2022/03/11 06:15:18;;;;;;;29.77;12.38;;;;;;;0.50;79.60;100585.31;5047545;28;20025;-85
2022/03/11 06:17:44;;;;;;;27.92;12.18;;;;;;;0.55;78.99;100580.13;5048149;28;20048;-86
2022/03/11 06:20:13;;;;;;;29.00;13.65;;;;;;;0.61;78.52;100590.75;5048504;28;20025;-87
2022/03/11 06:22:47;;;;;;;28.42;12.23;;;;;;;0.67;78.13;100587.34;5030648;28;20100;-87
2022/03/11 06:25:13;;;;;;;25.83;12.05;;;;;;;0.71;77.52;100583.88;5030162;28;20113;-84
2022/03/11 06:27:47;;;;;;;25.17;13.15;;;;;;;0.75;76.96;100590.06;5030194;28;20395;-86
2022/03/11 06:30:29;;;;;;;25.17;11.65;;;;;;;0.81;76.94;100586.66;5030151;28;20030;-84
2022/03/11 06:32:54;;;;;;;26.85;13.18;;;;;;;0.87;76.09;100589.38;5047910;28;20031;-84
2022/03/11 06:35:22;;;;;;;27.13;12.27;;;;;;;0.92;76.12;100590.34;5046774;28;20107;-86
2022/03/11 06:37:51;;;;;;;28.60;12.07;;;;;;;0.97;74.90;100583.41;5019294;28;20423;-84
2022/03/11 06:40:23;;;;;;;24.67;11.65;;;;;;;1.08;73.04;100593.19;5037177;28;20048;-84
2022/03/11 06:42:49;;;;;;;23.30;11.50;;;;;;;1.17;72.75;100582.78;5046614;28;20048;-86
2022/03/11 06:45:16;;;;;;;25.88;11.25;;;;;;;1.20;72.73;100592.47;5047605;28;20018;-85
2022/03/11 06:47:42;;;;;;;22.80;11.60;;;;;;;1.26;72.15;100604.81;5048291;28;20045;-86
2022/03/11 06:50:11;;;;;;;26.48;12.63;;;;;;;1.28;71.75;100601.34;5029721;28;20112;-86
2022/03/11 06:52:37;;;;;;;29.20;11.15;;;;;;;1.37;71.47;100611.09;5037261;28;20025;-86
2022/03/11 06:55:06;;;;;;;23.58;12.65;;;;;;;1.38;71.13;100606.72;5040946;28;20061;-86
2022/03/11 06:57:35;;;;;;;26.80;12.98;;;;;;;1.37;71.51;100603.22;5052773;28;20025;-86
2022/03/11 07:00:06;;;;;;;24.40;12.63;;;;;;;1.39;71.78;100601.47;5030192;28;20029;-87
2022/03/11 07:02:36;;;;;;;24.27;12.23;;;;;;;1.37;70.88;100589.16;5030141;28;20018;-86
2022/03/11 07:05:04;;;;;;;27.42;12.02;;;;;;;1.43;70.57;100597.16;5029961;28;20032;-87
2022/03/11 07:07:33;;;;;;;23.42;11.25;;;;;;;1.47;70.37;100590.19;5029479;28;20081;-86
2022/03/11 07:10:07;;;;;;;25.88;12.38;;;;;;;1.51;69.35;100591.97;5030220;28;20025;-87
2022/03/11 07:12:32;;;;;;;;;;;;;;;1.51;68.86;100592.88;5039153;28;20025;-85
2022/03/11 07:15:05;;;;;;;22.08;10.52;;;;;;;1.56;69.67;100591.19;5035424;28;20319;-85
2022/03/11 07:17:31;;;;;;;26.65;11.45;;;;;;;1.59;69.38;100579.81;5019997;28;20028;-85
2022/03/11 07:20:03;;;;;;;22.38;10.85;;;;;;;1.69;67.81;100579.91;5048149;28;20029;-86
2022/03/11 07:22:31;;;;;;;20.15;10.63;;;;;;;1.71;67.25;100578.16;5050286;28;20032;-86
2022/03/11 07:25:00;;;;;;;21.50;11.00;;;;;;;1.73;65.42;100577.31;5051334;28;20017;-85
2022/03/11 07:27:29;;;;;;;25.02;11.80;;;;;;;1.83;65.47;100583.56;5050365;28;20025;-86
2022/03/11 07:29:56;;;;;;;24.48;11.57;;;;;;;1.85;65.78;100584.50;5032137;28;20029;-86
2022/03/11 07:32:27;;;;;;;22.98;10.80;;;;;;;1.88;64.90;100581.84;5050938;28;20022;-87
2022/03/11 07:34:52;;;;;;;22.40;11.35;;;;;;;1.94;64.10;100582.78;5033232;28;20482;-85
2022/03/11 07:37:21;;;;;;;21.23;11.07;;;;;;;1.97;63.92;100585.47;5039718;28;20039;-86
2022/03/11 07:39:46;;;;;;;20.77;11.00;;;;;;;2.04;63.52;100582.03;5039404;28;20016;-85
2022/03/11 07:42:12;;;;;;;19.83;10.73;;;;;;;2.14;63.03;100587.41;5039213;28;20017;-85
2022/03/11 07:44:41;;;;;;;20.92;10.60;;;;;;;2.15;61.62;100581.25;5036098;28;20017;-86
2022/03/11 07:47:06;;;;;;;23.05;11.77;;;;;;;2.27;61.21;100585.78;5028246;28;20026;-85
2022/03/11 07:49:32;;;;;;;21.98;10.25;;;;;;;2.28;61.12;100584.88;5038863;28;20033;-84
2022/03/11 07:52:00;;;;;;;21.25;10.68;;;;;;;2.32;60.79;100579.66;5023871;28;20029;-86
2022/03/11 07:54:28;;;;;;;18.70;9.55;;;;;;;2.39;60.38;100585.00;5027995;28;20391;-85
2022/03/11 07:56:54;;;;;;;19.52;9.88;;;;;;;2.44;60.39;100575.38;5029178;28;20458;-86
2022/03/11 07:59:19;;;;;;;19.67;10.57;;;;;;;2.54;59.31;100574.56;5032260;28;20025;-86
2022/03/11 08:01:46;;;;;;;19.30;9.77;;;;;;;2.56;59.22;100572.81;5049254;28;20386;-86
2022/03/11 08:04:13;;;;;;;19.27;10.10;;;;;;;2.60;58.71;100576.38;5049276;28;20032;-86
2022/03/11 08:06:39;;;;;;;21.35;10.55;;;;;;;2.64;57.33;100572.00;5031021;28;20037;-85
2022/03/11 08:09:05;;;;;;;20.05;9.85;;;;;;;2.73;57.22;100577.31;5048769;28;20163;-85
2022/03/11 08:11:30;;;;;;;21.83;9.93;;;;;;;2.76;57.77;100579.09;5030516;28;20506;-86
2022/03/11 08:13:56;;;;;;;20.73;9.90;;;;;;;2.81;56.46;100576.53;5042409;28;20037;-85
2022/03/11 08:16:24;;;;;;;17.55;10.20;;;;;;;2.85;56.23;100566.00;5025508;28;20052;-85
2022/03/11 08:18:50;;;;;;;18.13;9.80;;;;;;;2.93;56.60;100568.69;5043321;28;20025;-85
2022/03/11 08:21:16;;;;;;;17.80;9.65;;;;;;;2.99;55.78;100571.34;5042004;28;20052;-85
2022/03/11 08:23:48;;;;;;;18.13;10.15;;;;;;;3.08;55.34;100574.91;5024802;28;20052;-85
2022/03/11 08:26:13;;;;;;;17.70;9.80;;;;;;;3.23;55.37;100577.66;5027703;28;20022;-86
2022/03/11 08:28:42;;;;;;;19.25;8.90;;;;;;;3.35;55.25;100575.94;5025544;28;20032;-85
2022/03/11 08:31:07;;;;;;;19.33;9.45;;;;;;;3.47;55.27;100564.56;5022659;28;20052;-85
2022/03/11 08:33:35;;;;;;;17.05;9.52;;;;;;;3.42;52.53;100569.81;5023123;28;20025;-85
2022/03/11 08:36:04;;;;;;;18.38;9.10;;;;;;;3.50;53.88;100561.03;5023009;28;20540;-84
2022/03/11 08:38:30;;;;;;;18.05;9.07;;;;;;;3.47;52.97;100554.00;5022733;28;20029;-85
2022/03/11 08:40:55;;;;;;;16.45;9.35;;;;;;;3.52;52.78;100557.53;5049006;28;20030;-84
2022/03/11 08:43:24;;;;;;;17.10;9.50;;;;;;;3.67;52.38;100556.69;5048459;28;20029;-85
2022/03/11 08:45:50;;;;;;;17.65;9.25;;;;;;;3.69;52.16;100549.66;5030312;28;20025;-85
2022/03/11 08:48:17;;;;;;;16.20;9.32;;;;;;;3.95;52.41;100544.41;5030499;28;20022;-86
2022/03/11 08:50:45;;;;;;;19.38;9.85;;;;;;;4.03;51.12;100553.25;5047371;28;20052;-83
2022/03/11 08:53:23;;;;;;;18.65;9.65;;;;;;;4.19;51.16;100542.69;5028902;28;20025;-85
2022/03/11 08:55:48;;;;;;;17.77;9.45;;;;;;;4.31;51.05;100544.44;5046813;28;20026;-86
2022/03/11 08:58:14;;;;;;;16.23;9.68;;;;;;;4.45;49.27;100545.34;5042318;28;20021;-84
2022/03/11 09:00:41;;;;;;;19.95;9.60;;;;;;;4.42;48.14;100539.16;5038182;28;20041;-84
2022/03/11 09:03:06;;;;;;;15.23;8.68;;;;;;;4.42;47.20;100534.75;5020853;28;20022;-84
2022/03/11 09:05:35;;;;;;;14.55;8.38;;;;;;;4.51;47.42;100533.84;5021324;28;20098;-85
2022/03/11 09:08:03;;;;;;;15.35;9.23;;;;;;;4.73;47.66;100528.56;5022219;28;20033;-85
2022/03/11 09:10:31;;;;;;;16.02;8.57;;;;;;;4.85;47.38;100526.75;5027658;28;20026;-86
2022/03/11 09:12:57;;;;;;;18.50;8.60;;;;;;;5.07;45.88;100522.28;5046721;28;20021;-85
2022/03/11 09:15:22;;;;;;;15.93;9.10;;;;;;;5.19;45.70;100531.06;5047344;28;20053;-85
2022/03/11 09:17:50;;;;;;;13.05;8.65;;;;;;;5.01;44.37;100523.19;5029847;28;20359;-85
2022/03/11 09:20:15;;;;;;;16.25;8.65;;;;;;;5.15;44.67;100530.22;5030766;28;20022;-86
2022/03/11 09:22:41;;;;;;;16.17;8.68;;;;;;;5.33;44.57;100531.03;5046892;28;20025;-86
2022/03/11 09:25:08;;;;;;;16.73;9.13;;;;;;;5.48;43.70;100528.31;5047724;28;20029;-85
2022/03/11 09:27:37;;;;;;;14.35;8.40;;;;;;;5.63;43.69;100528.22;5047477;28;20433;-85
2022/03/11 09:30:07;;;;;;;15.45;8.50;;;;;;;5.73;42.41;100527.28;5028700;28;20033;-87
2022/03/11 09:32:34;;;;;;;13.68;7.72;;;;;;;6.06;43.08;100529.69;5029293;28;20042;-85
2022/03/11 09:34:59;;;;;;;12.90;8.15;;;;;;;6.03;42.49;100520.00;5035908;28;20028;-85
2022/03/11 09:37:31;;;;;;;15.30;8.05;;;;;;;5.79;40.80;100510.47;5020299;28;20026;-85
2022/03/11 09:39:57;;;;;;;14.52;7.95;;;;;;;6.16;41.41;100508.47;5038532;28;20025;-84
2022/03/11 09:42:22;;;;;;;14.07;8.02;;;;;;;6.34;41.74;100507.44;5021529;28;20516;-86
2022/03/11 09:44:57;;;;;;;13.52;8.00;;;;;;;6.58;40.71;100503.66;5022302;28;20028;-85
2022/03/11 09:47:23;;;;;;;15.10;7.93;;;;;;;6.65;40.18;100511.56;5028764;28;20113;-86
2022/03/11 09:49:52;;;;;;;12.18;7.47;;;;;;;6.31;39.14;100521.63;5046285;28;20021;-85
2022/03/11 09:52:21;;;;;;;14.43;8.07;;;;;;;6.22;39.31;100504.00;5046974;28;20029;-85
2022/03/11 09:54:47;;;;;;;13.77;7.03;;;;;;;6.32;38.30;100503.91;5028051;28;20029;-85
2022/03/11 09:57:22;;;;;;;11.63;7.28;;;;;;;6.29;37.14;100502.16;5028300;28;20025;-86
2022/03/11 09:59:48;;;;;;;14.32;6.97;;;;;;;6.82;38.51;100488.38;5027688;28;20025;-85
2022/03/11 10:02:14;;;;;;;13.35;7.10;;;;;;;6.86;38.70;100491.88;5027409;28;20026;-86
2022/03/11 10:04:54;;;;;;;12.60;6.93;;;;;;;6.91;36.50;100494.47;5045770;28;20085;-85
2022/03/11 10:07:23;;;;;;;11.88;6.82;;;;;;;6.92;36.03;100493.59;5045120;28;20041;-85
2022/03/11 10:09:48;;;;;;;11.68;7.40;;;;;;;6.75;36.40;100473.41;5037791;28;20021;-85
2022/03/11 10:12:23;;;;;;;10.30;6.35;;;;;;;6.99;36.47;100495.25;5018242;28;20026;-85
2022/03/11 10:15:01;;;;;;;12.90;6.57;;;;;;;7.15;36.95;100488.00;5037088;28;20025;-85
2022/03/11 10:17:27;;;;;;;12.80;7.10;;;;;;;7.30;36.18;100488.69;5037920;28;20036;-85
2022/03/11 10:20:06;;;;;;;11.60;6.40;;;;;;;7.48;36.30;100492.88;5038514;28;20033;-85
2022/03/11 10:22:32;;;;;;;10.07;6.45;;;;;;;7.70;35.39;100492.59;5021217;28;20479;-85
2022/03/11 10:25:16;;;;;;;11.02;6.65;;;;;;;7.66;35.49;100496.16;5043506;28;20040;-86
2022/03/11 10:28:10;;;;;;;15.60;7.22;;;;;;;7.75;34.50;100484.53;5048245;28;20108;-86
2022/03/11 10:30:40;;;;;;;10.18;5.75;;;;;;;7.48;33.66;100489.34;5035080;28;20101;-85
2022/03/11 10:33:08;;;;;;;12.77;6.47;;;;;;;7.60;34.26;100486.50;5055946;28;20017;-87
2022/03/11 10:35:38;;;;;;;11.82;6.22;;;;;;;7.60;34.43;100486.50;5054907;28;20024;-86
2022/03/11 10:38:07;;;;;;;12.07;6.13;;;;;;;7.87;33.06;100480.81;5052267;28;20037;-87
2022/03/11 10:40:39;;;;;;;10.35;5.90;;;;;;;7.99;32.63;100476.22;5048644;28;20030;-86
2022/03/11 10:43:08;;;;;;;9.63;5.55;;;;;;;7.81;33.36;100478.22;5048708;28;20017;-86
2022/03/11 10:45:45;;;;;;;11.35;6.15;;;;;;;7.80;32.97;100476.50;5036051;28;20021;-85
2022/03/11 10:48:11;;;;;;;9.30;5.95;;;;;;;7.73;32.86;100458.88;5018495;28;20496;-85
2022/03/11 10:50:36;;;;;;;10.15;6.25;;;;;;;8.02;32.88;100460.19;5022833;28;20478;-86
2022/03/11 10:53:06;;;;;;;10.82;6.03;;;;;;;8.23;32.25;100458.06;5043649;28;20085;-85
2022/03/11 10:55:33;;;;;;;13.13;6.43;;;;;;;8.14;32.26;100451.97;5045687;28;20025;-85
2022/03/11 10:58:01;;;;;;;10.18;5.80;;;;;;;8.20;32.84;100443.03;5028115;28;20067;-86
2022/03/11 11:00:35;;;;;;;10.27;5.95;;;;;;;8.50;31.94;100450.50;5027538;28;20030;-86
2022/03/11 11:03:01;;;;;;;10.25;5.80;;;;;;;8.54;32.69;100445.97;5045368;28;20036;-85
2022/03/11 11:05:28;;;;;;;9.50;5.70;;;;;;;8.60;32.28;100441.47;5026453;28;20098;-85
2022/03/11 11:07:56;;;;;;;10.55;5.82;;;;;;;8.95;31.68;100446.09;5025982;28;20044;-86
2022/03/11 11:10:23;;;;;;;10.73;5.75;;;;;;;9.36;33.02;100442.56;5025579;28;20102;-86
2022/03/11 11:12:50;;;;;;;9.98;5.80;;;;;;;9.30;32.23;100440.06;5043732;28;20120;-86
2022/03/11 11:15:19;;;;;;;8.32;5.40;;;;;;;9.55;32.88;100439.47;5042932;28;20045;-87
2022/03/11 11:17:46;;;;;;;9.77;5.80;;;;;;;9.33;34.22;100440.84;5024742;28;20022;-84
2022/03/11 11:20:26;;;;;;;11.32;5.93;;;;;;;9.28;32.20;100434.75;5038409;28;20030;-85
2022/03/11 11:22:53;;;;;;;13.68;5.75;;;;;;;8.96;32.00;100431.00;5017563;28;20021;-84
2022/03/11 11:25:21;;;;;;;11.70;5.63;;;;;;;9.13;32.12;100427.97;5036481;28;20029;-85
2022/03/11 11:27:51;;;;;;;11.63;5.90;;;;;;;8.99;32.18;100420.28;5037928;28;20025;-85
2022/03/11 11:30:20;;;;;;;11.70;5.63;;;;;;;9.03;31.65;100419.28;5019657;28;20486;-85
2022/03/11 11:32:46;;;;;;;12.40;5.43;;;;;;;9.18;31.77;100423.41;5021029;28;20052;-84
2022/03/11 11:35:32;;;;;;;11.05;5.63;;;;;;;9.17;31.43;100413.69;5039793;28;20026;-86
2022/03/11 11:38:00;;;;;;;8.88;5.78;;;;;;;9.51;31.81;100425.34;5039767;28;20025;-86
2022/03/11 11:40:30;;;;;;;9.30;6.05;;;;;;;9.43;30.27;100414.84;5039420;28;20032;-86
2022/03/11 11:43:14;;;;;;;9.52;5.65;;;;;;;9.15;30.88;100420.81;5021332;28;20021;-85